createdAt,value
2022-09-02T00:00:14.115Z,1.00
2022-09-02T00:03:03.020Z,1.00
2022-09-02T00:05:53.165Z,1.00
2022-09-02T00:08:42.896Z,1.00
2022-09-02T00:11:33.478Z,1.00
2022-09-02T00:14:26.016Z,1.00
2022-09-02T00:17:14.681Z,1.00
2022-09-02T00:20:04.188Z,1.00
2022-09-02T00:22:54.354Z,1.00
2022-09-02T00:25:44.997Z,1.00
2022-09-02T00:28:33.794Z,1.00
2022-09-02T00:31:22.616Z,1.00
2022-09-02T00:34:11.481Z,1.00
2022-09-02T00:37:00.431Z,1.00
2022-09-02T00:39:52.036Z,1.00
2022-09-02T00:42:41.682Z,1.00
2022-09-02T00:45:30.473Z,1.00
2022-09-02T00:48:19.234Z,1.00
2022-09-02T00:51:08.757Z,1.00
2022-09-02T00:53:57.681Z,1.00
2022-09-02T00:56:49.372Z,1.00
2022-09-02T00:59:47.646Z,1.00
2022-09-02T01:02:38.613Z,1.10
2022-09-02T01:05:30.140Z,2.30
2022-09-02T01:08:23.165Z,2.70
2022-09-02T01:11:11.914Z,3.20
2022-09-02T01:14:02.155Z,3.60
2022-09-02T01:16:53.269Z,3.90
2022-09-02T01:19:46.065Z,4.20
2022-09-02T01:22:36.257Z,4.50
2022-09-02T01:25:27.779Z,6.70
2022-09-02T01:28:18.662Z,6.00
2022-09-02T01:31:07.933Z,6.60
2022-09-02T01:33:58.238Z,6.50
2022-09-02T01:36:47.498Z,5.00
2022-09-02T01:39:37.687Z,3.00
2022-09-02T01:42:27.694Z,1.70
2022-09-02T01:45:17.161Z,1.70
2022-09-02T01:48:07.428Z,1.30
2022-09-02T01:50:59.388Z,1.80
2022-09-02T01:53:49.441Z,2.00
2022-09-02T01:56:40.254Z,2.30
2022-09-02T01:59:29.060Z,1.90
2022-09-02T02:02:20.385Z,1.80
2022-09-02T02:05:09.993Z,1.90
2022-09-02T02:07:58.908Z,2.40
2022-09-02T02:10:47.704Z,2.80
2022-09-02T02:13:38.515Z,3.40
2022-09-02T02:16:27.362Z,3.00
2022-09-02T02:19:16.374Z,2.80
2022-09-02T02:22:06.120Z,2.70
2022-09-02T02:24:55.354Z,2.70
2022-09-02T02:27:44.286Z,3.10
2022-09-02T02:30:34.879Z,3.30
2022-09-02T02:33:23.649Z,3.60
2022-09-02T02:36:19.899Z,4.30
2022-09-02T02:39:11.433Z,4.10
2022-09-02T02:42:00.243Z,4.70
2022-09-02T02:44:49.005Z,5.40
2022-09-02T02:47:41.169Z,5.40
2022-09-02T02:50:29.871Z,5.80
2022-09-02T02:53:19.104Z,6.50
2022-09-02T02:56:08.572Z,6.70
2022-09-02T02:58:57.422Z,7.40
2022-09-02T03:01:46.174Z,8.10
2022-09-02T03:04:36.404Z,7.60
2022-09-02T03:07:25.127Z,7.30
2022-09-02T03:10:15.177Z,8.20
2022-09-02T03:13:04.601Z,8.40
2022-09-02T03:15:53.721Z,9.20
2022-09-02T03:18:42.435Z,10.00
2022-09-02T03:21:33.421Z,10.40
2022-09-02T03:24:28.089Z,11.00
2022-09-02T03:27:16.770Z,12.00
2022-09-02T03:30:07.409Z,12.70
2022-09-02T03:33:03.125Z,12.50
2022-09-02T03:35:52.742Z,13.10
2022-09-02T03:38:44.113Z,14.00
2022-09-02T03:41:32.972Z,14.70
2022-09-02T03:44:22.122Z,15.60
2022-09-02T03:47:10.828Z,16.10
2022-09-02T03:49:59.612Z,16.40
2022-09-02T03:52:48.395Z,17.70
2022-09-02T03:55:40.553Z,19.80
2022-09-02T03:58:29.330Z,21.20
2022-09-02T04:01:21.111Z,23.90
2022-09-02T04:04:10.172Z,27.20
2022-09-02T04:06:59.294Z,30.10
2022-09-02T04:09:48.065Z,30.90
2022-09-02T04:12:39.182Z,31.50
2022-09-02T04:15:28.079Z,32.70
2022-09-02T04:18:17.863Z,35.10
2022-09-02T04:21:07.198Z,36.20
2022-09-02T04:23:57.010Z,35.30
2022-09-02T04:26:45.824Z,35.50
2022-09-02T04:29:36.116Z,35.60
2022-09-02T04:32:26.653Z,35.40
2022-09-02T04:35:15.465Z,35.80
2022-09-02T04:38:04.394Z,36.90
2022-09-02T04:40:54.373Z,37.00
2022-09-02T04:43:43.351Z,37.20
2022-09-02T04:46:34.657Z,37.90
2022-09-02T04:49:23.879Z,38.00
2022-09-02T04:52:12.623Z,38.30
2022-09-02T04:55:01.365Z,38.50
2022-09-02T04:57:50.046Z,38.70
2022-09-02T05:00:39.237Z,38.80
2022-09-02T05:03:32.166Z,39.40
2022-09-02T05:06:22.916Z,39.80
2022-09-02T05:09:11.588Z,40.50
2022-09-02T05:12:04.428Z,40.70
2022-09-02T05:14:53.561Z,40.70
2022-09-02T05:17:42.854Z,39.90
2022-09-02T05:20:33.090Z,40.80
2022-09-02T05:23:22.006Z,41.00
2022-09-02T05:26:12.926Z,40.80
2022-09-02T05:29:01.750Z,40.60
2022-09-02T05:31:50.777Z,40.60
2022-09-02T05:34:39.947Z,40.60
2022-09-02T05:37:30.087Z,40.60
2022-09-02T05:40:19.885Z,40.50
2022-09-02T05:43:11.305Z,39.10
2022-09-02T05:46:00.314Z,40.40
2022-09-02T05:49:07.561Z,43.30
2022-09-02T05:51:59.092Z,45.50
2022-09-02T05:54:49.480Z,45.80
2022-09-02T05:57:38.292Z,44.10
2022-09-02T06:00:26.996Z,45.70
2022-09-02T06:03:18.530Z,49.10
2022-09-02T06:06:07.885Z,50.30
2022-09-02T06:08:56.672Z,51.90
2022-09-02T06:11:53.368Z,53.30
2022-09-02T06:14:42.979Z,52.60
2022-09-02T06:17:31.713Z,52.50
2022-09-02T06:20:20.484Z,51.90
2022-09-02T06:23:09.260Z,47.80
2022-09-02T06:25:58.000Z,44.90
2022-09-02T06:28:48.105Z,44.80
2022-09-02T06:31:36.882Z,47.70
2022-09-02T06:34:27.372Z,47.30
2022-09-02T06:37:16.139Z,41.60
2022-09-02T06:40:06.202Z,42.30
2022-09-02T06:42:55.555Z,44.00
2022-09-02T06:45:46.424Z,44.00
2022-09-02T06:48:35.161Z,39.30
2022-09-02T06:51:26.814Z,28.50
2022-09-02T06:54:17.669Z,24.50
2022-09-02T06:57:08.557Z,17.70
2022-09-02T06:59:59.337Z,19.00
2022-09-02T07:03:12.700Z,23.60
2022-09-02T07:06:02.788Z,25.90
2022-09-02T07:08:51.588Z,25.20
2022-09-02T07:11:40.659Z,24.50
2022-09-02T07:14:29.558Z,19.70
2022-09-02T07:17:21.856Z,11.90
2022-09-02T07:20:12.617Z,8.50
2022-09-02T07:23:01.874Z,1.40
2022-09-02T07:25:50.657Z,1.00
2022-09-02T07:28:39.350Z,1.00
2022-09-02T07:31:29.516Z,1.00
2022-09-02T07:34:18.607Z,1.00
2022-09-02T07:37:11.054Z,1.00
2022-09-02T07:39:59.970Z,1.00
2022-09-02T07:42:48.831Z,1.00
2022-09-02T07:45:38.267Z,1.00
2022-09-02T07:48:27.505Z,1.00
2022-09-02T07:51:16.255Z,1.00
2022-09-02T07:54:07.459Z,1.00
2022-09-02T07:56:56.947Z,1.00
2022-09-02T07:59:46.339Z,1.00
2022-09-02T08:02:35.154Z,1.00
2022-09-02T08:05:24.566Z,1.00
2022-09-02T08:08:13.799Z,1.00
2022-09-02T08:11:04.195Z,1.00
2022-09-02T08:13:55.101Z,1.00
2022-09-02T08:16:44.713Z,1.00
2022-09-02T08:19:33.423Z,1.00
2022-09-02T08:22:22.193Z,1.00
2022-09-02T08:25:11.598Z,1.00
2022-09-02T08:28:03.274Z,1.00
2022-09-02T08:30:52.516Z,1.00
2022-09-02T08:33:41.376Z,1.00
2022-09-02T08:36:30.147Z,1.00
2022-09-02T08:39:19.187Z,1.00
2022-09-02T08:42:16.859Z,1.00
2022-09-02T08:45:12.439Z,1.00
2022-09-02T08:48:08.299Z,1.00
2022-09-02T08:51:04.627Z,1.00
2022-09-02T08:54:01.835Z,1.00
2022-09-02T08:56:51.926Z,1.00
2022-09-02T09:02:47.635Z,1.00
2022-09-02T09:05:47.827Z,1.00
2022-09-02T09:08:43.027Z,1.00
2022-09-02T09:11:39.847Z,1.00
2022-09-02T09:14:35.330Z,1.00
2022-09-02T09:17:30.318Z,1.00
2022-09-02T09:20:22.953Z,1.00
2022-09-02T09:23:24.368Z,1.00
2022-09-02T09:26:16.127Z,1.00
2022-09-02T09:29:06.145Z,1.00
2022-09-02T09:31:58.241Z,1.00
2022-09-02T09:35:03.219Z,1.00
2022-09-02T09:37:54.834Z,1.00
2022-09-02T09:40:43.756Z,1.00
2022-09-02T09:43:32.944Z,1.00
2022-09-02T09:46:26.766Z,1.00
2022-09-02T09:49:27.909Z,1.00
2022-09-02T09:52:28.078Z,1.00
2022-09-02T09:55:25.290Z,1.00
2022-09-02T09:58:14.477Z,1.00
2022-09-02T10:01:13.252Z,1.00
2022-09-02T10:04:12.174Z,1.00
2022-09-02T10:07:13.533Z,1.00
2022-09-02T10:10:17.685Z,1.00
2022-09-02T10:13:24.275Z,1.00
2022-09-02T10:16:28.769Z,1.00
2022-09-02T10:19:28.110Z,1.00
2022-09-02T10:23:14.082Z,1.00
2022-09-02T10:26:11.793Z,1.00
2022-09-02T10:29:36.063Z,1.00
2022-09-02T10:32:41.976Z,1.00
2022-09-02T10:35:42.035Z,1.00
2022-09-02T10:38:38.677Z,1.00
2022-09-02T10:41:47.102Z,1.00
2022-09-02T10:44:45.552Z,1.00
2022-09-02T10:47:38.574Z,1.00
2022-09-02T10:50:38.976Z,1.00
2022-09-02T10:53:47.247Z,1.00
2022-09-02T10:56:40.560Z,1.00
2022-09-02T10:59:34.332Z,1.00
2022-09-02T11:02:29.786Z,1.00
2022-09-02T11:05:23.823Z,1.00
2022-09-02T11:08:14.737Z,1.00
2022-09-02T11:11:09.698Z,1.00
2022-09-02T11:14:07.997Z,1.00
2022-09-02T11:17:04.314Z,1.00
2022-09-02T11:20:00.278Z,1.00
2022-09-02T11:22:56.661Z,1.00
2022-09-02T11:25:50.660Z,1.00
2022-09-02T11:28:45.421Z,1.00
2022-09-02T11:31:39.545Z,1.00
2022-09-02T11:34:39.401Z,1.00
2022-09-02T11:37:35.746Z,1.00
2022-09-02T11:40:37.066Z,1.00
2022-09-02T11:43:36.377Z,1.00
2022-09-02T11:47:00.315Z,1.00
2022-09-02T11:50:18.483Z,1.00
2022-09-02T11:53:20.679Z,1.00
2022-09-02T11:56:15.860Z,1.00
2022-09-02T11:59:06.903Z,1.00
2022-09-02T12:01:56.936Z,1.00
2022-09-02T12:04:59.750Z,1.00
2022-09-02T12:07:51.334Z,1.00
2022-09-02T12:11:02.290Z,1.00
2022-09-02T12:13:51.245Z,1.00
2022-09-02T12:17:03.830Z,1.00
2022-09-02T12:19:52.771Z,1.00
2022-09-02T12:22:42.629Z,1.00
2022-09-02T12:25:43.372Z,1.00
2022-09-02T12:28:34.012Z,1.00
2022-09-02T12:31:42.844Z,1.00
2022-09-02T12:34:54.801Z,1.00
2022-09-02T12:37:57.737Z,1.00
2022-09-02T12:41:13.524Z,1.00
2022-09-02T12:44:27.838Z,1.00
2022-09-02T12:47:31.530Z,1.00
2022-09-02T12:50:27.148Z,1.00
2022-09-02T12:53:38.809Z,1.00
2022-09-02T12:56:27.564Z,1.00
2022-09-02T12:59:29.687Z,1.00
2022-09-02T13:02:42.448Z,1.00
2022-09-02T13:05:38.329Z,1.00
2022-09-02T13:09:01.769Z,1.00
2022-09-02T13:12:20.988Z,1.00
2022-09-02T13:15:34.615Z,1.00
2022-09-02T13:18:53.074Z,1.00
2022-09-02T13:21:59.230Z,1.00
2022-09-02T13:25:15.431Z,1.00
2022-09-02T13:28:41.700Z,1.00
2022-09-02T13:31:31.815Z,1.00
2022-09-02T13:34:21.527Z,1.00
2022-09-02T13:37:28.529Z,1.00
2022-09-02T13:40:22.493Z,1.00
2022-09-02T13:43:19.699Z,1.00
2022-09-02T13:46:10.630Z,1.00
2022-09-02T13:49:00.846Z,1.00
2022-09-02T13:51:52.962Z,1.00
2022-09-02T13:54:44.860Z,1.00
2022-09-02T13:57:33.708Z,1.00
2022-09-02T14:00:33.251Z,1.00
2022-09-02T14:03:22.865Z,1.00
2022-09-02T14:06:13.623Z,1.00
2022-09-02T14:09:04.697Z,1.00
2022-09-02T14:11:54.238Z,1.00
2022-09-02T14:14:43.430Z,1.00
2022-09-02T14:17:32.476Z,1.00
2022-09-02T14:20:23.577Z,1.00
2022-09-02T14:23:18.131Z,1.00
2022-09-02T14:26:07.241Z,1.00
2022-09-02T14:28:55.990Z,1.00
2022-09-02T14:31:45.107Z,1.00
2022-09-02T14:34:37.541Z,1.00
2022-09-02T14:37:28.726Z,1.00
2022-09-02T14:40:20.345Z,1.00
2022-09-02T14:43:14.619Z,1.00
2022-09-02T14:46:08.620Z,1.00
2022-09-02T14:49:05.144Z,1.00
2022-09-02T14:51:56.339Z,1.00
2022-09-02T14:54:48.045Z,1.00
2022-09-02T14:57:39.164Z,1.00
2022-09-02T15:00:31.386Z,1.00
2022-09-02T15:03:23.977Z,1.00
2022-09-02T15:06:15.250Z,1.00
2022-09-02T15:09:04.311Z,1.00
2022-09-02T15:11:57.609Z,1.00
2022-09-02T15:14:49.787Z,1.00
2022-09-02T15:17:38.552Z,1.00
2022-09-02T15:20:28.477Z,1.00
2022-09-02T15:23:18.152Z,1.00
2022-09-02T15:26:07.268Z,1.00
2022-09-02T15:28:55.987Z,1.00
2022-09-02T15:31:46.142Z,1.00
2022-09-02T15:34:35.589Z,1.00
2022-09-02T15:37:24.573Z,1.00
2022-09-02T15:40:13.557Z,1.00
2022-09-02T15:43:02.256Z,1.00
2022-09-02T15:45:51.077Z,1.00
2022-09-02T15:48:41.262Z,1.00
2022-09-02T15:51:29.939Z,1.00
2022-09-02T15:54:21.322Z,1.00
2022-09-02T15:57:11.648Z,1.00
2022-09-02T16:00:00.376Z,1.00
2022-09-02T16:02:50.068Z,1.00
2022-09-02T16:05:43.298Z,1.00
2022-09-02T16:08:32.031Z,1.00
2022-09-02T16:11:21.619Z,1.00
2022-09-02T16:14:10.441Z,1.00
2022-09-02T16:16:59.431Z,1.00
2022-09-02T16:19:48.149Z,1.00
2022-09-02T16:22:38.248Z,1.00
2022-09-02T16:25:27.023Z,1.00
2022-09-02T16:28:16.152Z,1.00
2022-09-02T16:31:06.098Z,1.00
2022-09-02T16:33:56.863Z,1.00
2022-09-02T16:36:46.974Z,1.00
2022-09-02T16:39:37.403Z,1.00
2022-09-02T16:42:26.151Z,1.00
2022-09-02T16:45:15.205Z,1.00
2022-09-02T16:48:05.004Z,1.00
2022-09-02T16:50:53.731Z,1.00
2022-09-02T16:53:42.617Z,1.00
2022-09-02T16:56:33.406Z,1.00
2022-09-02T16:59:22.130Z,1.00
2022-09-02T17:02:11.109Z,1.00
2022-09-02T17:04:59.846Z,1.00
2022-09-02T17:07:48.527Z,1.00
2022-09-02T17:10:37.544Z,1.00
2022-09-02T17:13:27.558Z,1.00
2022-09-02T17:16:16.702Z,1.00
2022-09-02T17:19:06.736Z,1.00
2022-09-02T17:21:56.107Z,1.00
2022-09-02T17:24:44.900Z,1.00
2022-09-02T17:27:36.351Z,1.00
2022-09-02T17:30:26.526Z,1.00
2022-09-02T17:33:15.237Z,1.00
2022-09-02T17:36:05.647Z,1.00
2022-09-02T17:38:57.270Z,1.00
2022-09-02T17:41:57.302Z,1.00
2022-09-02T17:44:46.050Z,1.00
2022-09-02T17:47:36.342Z,1.00
2022-09-02T17:50:25.028Z,1.00
2022-09-02T17:53:13.707Z,1.00
2022-09-02T17:56:10.445Z,1.00
2022-09-02T17:59:09.789Z,1.00
2022-09-02T18:02:16.959Z,1.00
2022-09-02T18:05:16.489Z,1.00
2022-09-02T18:08:10.325Z,1.00
2022-09-02T18:11:03.233Z,1.00
2022-09-02T18:13:58.910Z,1.00
2022-09-02T18:16:59.414Z,1.00
2022-09-02T18:20:00.075Z,1.00
2022-09-02T18:23:03.322Z,1.00
2022-09-02T18:25:59.798Z,1.00
2022-09-02T18:28:57.694Z,1.00
2022-09-02T18:31:52.966Z,1.00
2022-09-02T18:34:50.420Z,1.00
2022-09-02T18:37:45.951Z,1.00
2022-09-02T18:40:44.616Z,1.00
2022-09-02T18:43:44.182Z,1.00
2022-09-02T18:46:37.094Z,1.00
2022-09-02T18:49:27.336Z,1.00
2022-09-02T18:52:16.427Z,1.00
2022-09-02T18:55:13.504Z,1.00
2022-09-02T18:58:09.354Z,1.00
2022-09-02T19:01:01.888Z,1.00
2022-09-02T19:03:50.795Z,1.00
2022-09-02T19:06:41.391Z,1.00
2022-09-02T19:09:29.104Z,1.00
2022-09-02T19:12:17.888Z,1.00
2022-09-02T19:15:13.092Z,1.00
2022-09-02T19:18:02.123Z,1.00
2022-09-02T19:20:51.629Z,1.00
2022-09-02T19:23:40.984Z,1.00
2022-09-02T19:26:29.838Z,1.00
2022-09-02T19:29:19.166Z,1.00
2022-09-02T19:32:15.380Z,1.00
2022-09-02T19:35:08.875Z,1.00
2022-09-02T19:37:57.892Z,1.00
2022-09-02T19:40:49.612Z,1.00
2022-09-02T19:43:40.949Z,1.00
2022-09-02T19:47:24.791Z,1.00
2022-09-02T19:49:40.995Z,1.00
2022-09-02T19:52:30.254Z,1.00
2022-09-02T19:55:20.689Z,1.00
2022-09-02T19:58:09.621Z,1.00
2022-09-02T20:00:59.334Z,1.00
2022-09-02T20:03:48.096Z,1.00
2022-09-02T20:06:38.224Z,1.00
2022-09-02T20:09:29.115Z,1.00
2022-09-02T20:12:18.206Z,1.00
2022-09-02T20:15:08.015Z,1.00
2022-09-02T20:18:06.695Z,1.00
2022-09-02T20:20:58.862Z,1.00
2022-09-02T20:23:49.222Z,1.00
2022-09-02T20:26:49.894Z,1.00
2022-09-02T20:30:04.870Z,1.00
2022-09-02T20:32:58.212Z,1.00
2022-09-02T20:36:04.053Z,1.00
2022-09-02T20:39:14.080Z,1.00
2022-09-02T20:42:10.600Z,1.00
2022-09-02T20:45:05.277Z,1.00
2022-09-02T20:48:04.422Z,1.00
2022-09-02T20:51:01.245Z,1.00
2022-09-02T20:54:14.690Z,1.00
2022-09-02T20:57:17.590Z,1.00
2022-09-02T21:00:10.502Z,1.00
2022-09-02T21:03:05.445Z,1.00
2022-09-02T21:05:58.340Z,1.00
2022-09-02T21:09:54.897Z,1.00
2022-09-02T21:12:49.261Z,1.00
2022-09-02T21:15:43.057Z,1.00
2022-09-02T21:18:36.968Z,1.00
2022-09-02T21:21:31.547Z,1.00
2022-09-02T21:24:27.104Z,1.00
2022-09-02T21:27:21.566Z,1.00
2022-09-02T21:30:11.600Z,1.00
2022-09-02T21:33:02.112Z,1.00
2022-09-02T21:35:52.382Z,1.00
2022-09-02T21:38:45.185Z,1.00
2022-09-02T21:41:41.162Z,1.00
2022-09-02T21:44:39.200Z,1.00
2022-09-02T21:47:36.720Z,1.00
2022-09-02T21:50:34.746Z,1.00
2022-09-02T21:53:37.269Z,1.00
2022-09-02T21:56:38.098Z,1.00
2022-09-02T21:59:47.598Z,1.00
2022-09-02T22:02:51.486Z,1.00
2022-09-02T22:05:48.810Z,1.00
2022-09-02T22:08:45.715Z,1.00
2022-09-02T22:11:39.233Z,1.00
2022-09-02T22:14:35.451Z,1.00
2022-09-02T22:17:31.531Z,1.00
2022-09-02T22:20:24.342Z,1.00
2022-09-02T22:23:25.926Z,1.00
2022-09-02T22:26:35.343Z,1.00
2022-09-02T22:29:31.888Z,1.00
2022-09-02T22:32:23.138Z,1.00
2022-09-02T22:35:23.032Z,1.00
2022-09-02T22:38:16.825Z,1.00
2022-09-02T22:41:13.855Z,1.00
2022-09-02T22:44:08.672Z,1.00
2022-09-02T22:47:21.878Z,1.00
2022-09-02T22:50:32.459Z,1.00
2022-09-02T22:53:21.278Z,1.00
2022-09-02T22:56:11.660Z,1.00
2022-09-02T22:59:17.686Z,1.00
2022-09-02T23:02:20.360Z,1.00
2022-09-02T23:05:45.720Z,1.00
2022-09-02T23:08:37.209Z,1.00
2022-09-02T23:11:32.340Z,1.00
2022-09-02T23:14:29.925Z,1.00
2022-09-02T23:17:32.930Z,1.00
2022-09-02T23:20:27.064Z,1.00
2022-09-02T23:23:31.913Z,1.00
2022-09-02T23:26:34.115Z,1.00
2022-09-02T23:29:26.601Z,1.00
2022-09-02T23:32:39.756Z,1.00
2022-09-02T23:35:38.501Z,1.00
2022-09-02T23:38:43.250Z,1.00
2022-09-02T23:41:31.935Z,1.00
2022-09-02T23:44:23.089Z,1.00
2022-09-02T23:47:28.984Z,1.00
2022-09-02T23:50:26.799Z,1.00
2022-09-02T23:53:22.468Z,1.00
2022-09-02T23:56:23.882Z,1.00
2022-09-02T23:59:26.177Z,1.00
